Time;durP1;ratioP1;P1;durP2;ratioP2;P2;SDS_P1;SDS_P2;PMS_P1;PMS_P2;Temp;Humidity;BMP_temperature;BMP_pressure;BME280_temperature;BME280_humidity;BME280_pressure;Samples;Min_cycle;Max_cycle;Signal;HPM_P1;HPM_P2
2021/06/08 00:00:28;;;;;;;14.05;10.20;;;;;;;8.90;65.60;100119.16;1798865;78;21091;-66
2021/06/08 00:02:56;;;;;;;16.02;9.13;;;;;;;8.91;65.64;100120.88;1801753;78;21401;-67
2021/06/08 00:05:25;;;;;;;13.97;8.33;;;;;;;8.89;65.71;100126.58;1783625;79;20997;-66
2021/06/08 00:07:51;;;;;;;16.40;9.00;;;;;;;8.87;65.84;100122.70;1780500;78;20951;-66
2021/06/08 00:10:19;;;;;;;14.50;8.75;;;;;;;8.84;65.94;100126.72;1798005;78;20934;-66
2021/06/08 00:12:46;;;;;;;14.13;8.85;;;;;;;8.82;66.12;100128.55;1782149;78;21038;-66
2021/06/08 00:15:14;;;;;;;13.55;9.23;;;;;;;8.80;66.17;100119.93;1742985;80;21575;-66
2021/06/08 00:17:41;;;;;;;11.80;8.78;;;;;;;8.81;66.22;100124.68;1754663;80;20903;-66
2021/06/08 00:20:09;;;;;;;12.95;8.78;;;;;;;8.83;66.36;100121.58;1776352;79;20963;-66
2021/06/08 00:22:36;;;;;;;13.78;8.73;;;;;;;8.78;66.33;100114.38;1774273;79;20914;-66
2021/06/08 00:25:04;;;;;;;22.70;8.40;;;;;;;8.73;66.40;100116.66;1778744;78;21103;-66
2021/06/08 00:31:12;;;;;;;14.43;10.30;;;;;;;8.57;66.72;100113.31;1859047;75;22090;-66
2021/06/08 00:33:39;;;;;;;23.90;12.13;;;;;;;8.44;66.74;100110.27;1784872;79;21507;-66
2021/06/08 00:36:06;;;;;;;18.00;12.27;;;;;;;8.41;66.93;100115.58;1764561;79;21064;-66
2021/06/08 00:38:33;;;;;;;18.07;10.90;;;;;;;8.41;66.98;100118.19;1791884;78;21291;-66
2021/06/08 00:41:03;;;;;;;17.37;10.98;;;;;;;8.42;67.05;100114.67;1794757;78;20930;-65
2021/06/08 00:43:30;;;;;;;21.75;10.32;;;;;;;8.43;67.10;100109.43;1799654;78;21030;-66
2021/06/08 00:45:57;;;;;;;16.60;9.83;;;;;;;8.45;67.18;100113.27;1791392;78;20957;-66
2021/06/08 00:48:24;;;;;;;12.90;9.73;;;;;;;8.44;67.23;100110.27;1794224;78;21707;-66
2021/06/08 00:50:51;;;;;;;15.63;9.00;;;;;;;8.43;67.30;100109.86;1789970;78;21452;-66
2021/06/08 00:53:18;;;;;;;16.97;9.60;;;;;;;8.42;67.34;100115.97;1796777;78;21077;-67
2021/06/08 00:55:45;;;;;;;16.93;9.98;;;;;;;8.41;67.40;100115.58;1798896;78;21033;-66
2021/06/08 00:58:12;;;;;;;17.35;9.68;;;;;;;8.39;67.48;100112.17;1774685;79;20973;-66
2021/06/08 01:00:38;;;;;;;19.32;9.28;;;;;;;8.38;67.47;100113.05;1757652;80;21098;-66
2021/06/08 01:03:06;;;;;;;15.60;9.25;;;;;;;8.35;67.58;100109.25;1773154;79;21631;-66
2021/06/08 01:05:32;;;;;;;13.95;9.05;;;;;;;8.34;67.68;100117.93;1795278;78;20918;-66
2021/06/08 01:07:59;;;;;;;14.30;9.27;;;;;;;8.33;67.71;100114.94;1778306;78;21006;-66
2021/06/08 01:10:25;;;;;;;16.80;10.27;;;;;;;8.32;67.79;100114.09;1767678;79;22031;-66
2021/06/08 01:12:52;;;;;;;22.93;10.27;;;;;;;8.33;67.96;100112.34;1787845;78;21125;-66
2021/06/08 01:15:21;;;;;;;14.75;9.78;;;;;;;8.30;68.05;100103.72;1769179;78;21121;-67
2021/06/08 01:17:47;;;;;;;16.35;10.30;;;;;;;8.24;68.13;100106.52;1784489;79;21014;-66
2021/06/08 01:20:17;;;;;;;16.17;9.98;;;;;;;8.26;68.23;100102.13;1790172;78;20949;-67
2021/06/08 01:22:44;;;;;;;16.15;10.08;;;;;;;8.26;68.23;100102.13;1757999;79;21002;-67
2021/06/08 01:25:12;;;;;;;21.57;10.53;;;;;;;8.29;68.24;100102.03;1764235;80;21842;-66
2021/06/08 01:27:41;;;;;;;21.37;10.00;;;;;;;8.31;68.44;100101.97;1772444;80;21572;-66
2021/06/08 01:30:10;;;;;;;19.42;10.82;;;;;;;8.29;68.42;100099.43;1768453;78;21171;-66
2021/06/08 01:32:40;;;;;;;20.77;10.28;;;;;;;8.30;68.41;100101.58;1758635;79;21618;-66
2021/06/08 01:35:09;;;;;;;14.30;9.98;;;;;;;8.30;68.62;100103.72;1760295;80;21121;-66
2021/06/08 01:37:39;;;;;;;14.70;9.58;;;;;;;8.25;68.50;100100.41;1785313;78;20943;-66
2021/06/08 01:40:08;;;;;;;16.35;8.03;;;;;;;8.18;68.59;100097.62;1770765;79;20954;-66
2021/06/08 01:42:37;;;;;;;12.05;6.97;;;;;;;8.10;68.56;100102.66;1776204;79;20938;-66
2021/06/08 01:45:05;;;;;;;8.18;7.08;;;;;;;7.99;68.54;100100.38;1787672;79;21078;-66
2021/06/08 01:47:31;;;;;;;11.38;7.58;;;;;;;7.86;68.55;100099.89;1777489;79;21001;-66
2021/06/08 01:49:58;;;;;;;12.28;8.43;;;;;;;7.76;68.63;100101.93;1781328;78;21479;-66
2021/06/08 01:53:05;;;;;;;14.87;8.47;;;;;;;7.76;68.87;100101.93;1782084;78;21089;-66
2021/06/08 01:55:37;;;;;;;13.58;8.40;;;;;;;7.79;68.96;100098.39;1781105;79;21319;-66
2021/06/08 01:58:15;;;;;;;14.90;9.38;;;;;;;7.82;69.09;100099.59;1778206;79;21908;-66
2021/06/08 02:00:59;;;;;;;13.13;9.18;;;;;;;7.80;69.10;100087.92;1782514;78;20887;-66
2021/06/08 02:03:34;;;;;;;11.70;8.13;;;;;;;7.80;69.20;100088.38;1781347;79;22166;-67
2021/06/08 02:06:33;;;;;;;9.95;8.20;;;;;;;7.77;69.27;100094.97;1777497;78;21045;-67
2021/06/08 02:09:08;;;;;;;12.85;8.03;;;;;;;7.77;69.29;100090.63;1788673;78;21642;-66
2021/06/08 02:11:50;;;;;;;13.45;8.48;;;;;;;7.76;69.33;100091.53;1789501;78;20947;-66
2021/06/08 02:14:27;;;;;;;10.15;7.83;;;;;;;7.79;69.47;100088.84;1784136;78;21076;-66
2021/06/08 02:16:59;;;;;;;13.20;8.60;;;;;;;7.78;69.42;100088.41;1768442;79;21111;-66
2021/06/08 02:19:29;;;;;;;12.88;8.53;;;;;;;7.75;69.44;100085.91;1775654;79;20957;-67
2021/06/08 02:22:01;;;;;;;16.50;9.88;;;;;;;7.77;69.59;100086.72;1784411;78;21550;-66
2021/06/08 02:24:31;;;;;;;18.40;9.43;;;;;;;7.78;69.59;100085.81;1788347;79;21609;-66
2021/06/08 02:27:07;;;;;;;16.82;9.03;;;;;;;7.83;69.73;100089.13;1779037;78;20973;-66
2021/06/08 02:29:36;;;;;;;21.07;10.78;;;;;;;7.85;69.72;100096.45;1789612;78;21576;-67
2021/06/08 02:32:04;;;;;;;33.88;9.93;;;;;;;7.89;69.84;100089.85;1782964;78;20840;-67
2021/06/08 02:34:31;;;;;;;16.25;9.15;;;;;;;7.90;69.82;100086.34;1790775;78;21562;-67
2021/06/08 02:36:59;;;;;;;17.70;10.25;;;;;;;7.90;69.84;100090.24;1784690;78;20899;-67
2021/06/08 02:39:28;;;;;;;17.10;10.50;;;;;;;8.00;70.03;100092.52;1786814;78;20980;-67
2021/06/08 02:41:57;;;;;;;18.57;10.00;;;;;;;8.11;70.00;100098.70;1785657;78;21466;-66
2021/06/08 02:44:25;;;;;;;21.55;10.20;;;;;;;8.33;70.31;100094.13;1751509;80;21025;-67
2021/06/08 02:46:53;;;;;;;17.12;10.05;;;;;;;8.84;70.42;100095.93;1757026;78;21495;-66
2021/06/08 02:49:21;;;;;;;16.20;8.70;;;;;;;9.57;70.40;100099.81;1767334;79;21064;-68
2021/06/08 02:51:48;;;;;;;11.57;6.60;;;;;;;10.44;70.21;100089.53;1779052;80;20942;-66
2021/06/08 02:54:17;;;;;;;12.60;6.28;;;;;;;10.98;69.06;100092.92;1757789;80;21626;-67
2021/06/08 02:56:44;;;;;;;13.03;6.83;;;;;;;11.43;68.75;100091.81;1766257;80;21878;-67
2021/06/08 02:59:12;;;;;;;12.03;6.80;;;;;;;12.06;68.86;100091.55;1776508;79;21132;-67
2021/06/08 03:01:50;;;;;;;10.78;6.05;;;;;;;12.88;68.86;100087.55;1765334;80;21088;-67
2021/06/08 03:04:20;;;;;;;11.88;6.75;;;;;;;13.66;67.94;100088.72;1758953;79;20947;-67
2021/06/08 03:06:54;;;;;;;12.80;7.47;;;;;;;14.25;67.44;100079.77;1771257;79;22350;-68
2021/06/08 03:09:40;;;;;;;10.32;7.20;;;;;;;14.84;67.14;100084.69;1791651;78;21008;-65
2021/06/08 03:12:12;;;;;;;12.73;7.58;;;;;;;15.45;66.77;100078.34;1755551;80;21591;-65
2021/06/08 03:14:42;;;;;;;16.95;8.25;;;;;;;16.25;66.77;100088.30;1773535;79;20977;-66
2021/06/08 03:17:11;;;;;;;8.83;7.10;;;;;;;17.06;66.34;100089.52;1769992;79;21072;-66
2021/06/08 03:19:41;;;;;;;15.45;6.70;;;;;;;17.48;65.01;100090.61;1768054;79;21164;-66
2021/06/08 03:22:16;;;;;;;9.45;6.05;;;;;;;17.67;64.42;100087.87;1772586;79;21689;-66
2021/06/08 03:24:51;;;;;;;11.12;7.30;;;;;;;18.05;64.40;100093.55;1764544;79;20950;-66
2021/06/08 03:27:20;;;;;;;33.48;9.40;;;;;;;18.52;63.80;100089.22;1771741;79;21025;-66
2021/06/08 03:29:48;;;;;;;68.52;12.70;;;;;;;18.95;63.08;100083.36;1765042;79;20965;-66
2021/06/08 03:32:15;;;;;;;34.73;9.98;;;;;;;19.26;62.67;100080.99;1764228;79;21154;-66
2021/06/08 03:34:43;;;;;;;31.57;9.45;;;;;;;19.63;62.29;100084.72;1772119;79;21517;-66
2021/06/08 03:37:11;;;;;;;41.40;9.58;;;;;;;20.13;62.30;100081.17;1769597;79;20939;-66
2021/06/08 03:39:39;;;;;;;36.40;10.80;;;;;;;20.73;62.05;100085.07;1757372;79;21073;-66
2021/06/08 03:42:07;;;;;;;20.45;9.25;;;;;;;21.45;61.74;100083.39;1767483;79;21040;-66
2021/06/08 03:44:36;;;;;;;23.20;9.70;;;;;;;21.78;60.17;100081.42;1770364;79;21262;-66
2021/06/08 03:47:03;;;;;;;20.77;11.88;;;;;;;21.83;59.82;100080.52;1774408;79;21040;-66
2021/06/08 03:49:32;;;;;;;24.75;13.50;;;;;;;22.00;59.08;100083.02;1769427;79;21025;-66
2021/06/08 03:51:59;;;;;;;29.98;14.73;;;;;;;22.24;58.92;100078.19;1778644;78;21017;-66
2021/06/08 03:54:26;;;;;;;18.07;11.50;;;;;;;22.83;59.33;100085.66;1768769;79;21549;-67
2021/06/08 03:56:54;;;;;;;25.32;12.30;;;;;;;23.35;57.88;100075.94;1764708;79;21132;-66
2021/06/08 03:59:24;;;;;;;29.23;13.70;;;;;;;23.22;56.92;100078.95;1768640;79;21081;-66
2021/06/08 04:01:53;;;;;;;27.75;12.88;;;;;;;23.11;56.96;100084.45;1770781;79;21501;-66
2021/06/08 04:04:20;;;;;;;26.00;13.00;;;;;;;23.18;56.67;100080.20;1760574;80;20914;-66
2021/06/08 04:06:48;;;;;;;26.75;14.28;;;;;;;23.17;56.49;100083.86;1763433;79;20960;-66
2021/06/08 04:09:15;;;;;;;31.48;14.65;;;;;;;23.44;56.63;100083.91;1757063;79;22009;-67
2021/06/08 04:11:43;;;;;;;38.05;14.15;;;;;;;23.74;55.91;100083.29;1783209;79;21068;-67
2021/06/08 04:14:10;;;;;;;37.35;15.88;;;;;;;24.04;55.50;100086.64;1764660;79;21096;-66
2021/06/08 04:16:39;;;;;;;32.08;16.07;;;;;;;24.13;54.82;100090.56;1782728;79;20924;-67
2021/06/08 04:19:10;;;;;;;34.43;14.33;;;;;;;24.60;55.11;100080.20;1779037;79;21104;-66
2021/06/08 04:21:38;;;;;;;28.83;12.82;;;;;;;25.28;54.67;100084.02;1766816;79;21242;-67
2021/06/08 04:24:06;;;;;;;37.53;12.53;;;;;;;25.80;54.24;100079.92;1764742;79;20957;-68
2021/06/08 04:26:34;;;;;;;37.55;11.60;;;;;;;26.30;54.15;100080.41;1764689;79;21040;-68
2021/06/08 04:29:02;;;;;;;43.00;11.70;;;;;;;26.77;53.08;100076.59;1765313;79;21033;-68
2021/06/08 04:31:29;;;;;;;38.28;11.28;;;;;;;27.04;52.33;100085.25;1763495;79;22432;-68
2021/06/08 04:33:56;;;;;;;122.80;16.97;;;;;;;27.20;51.85;100076.38;1777003;78;21108;-69
2021/06/08 04:36:24;;;;;;;66.85;11.93;;;;;;;27.42;51.68;100075.64;1742998;80;21079;-68
2021/06/08 04:38:53;;;;;;;56.08;10.68;;;;;;;27.66;50.92;100079.22;1768775;79;21509;-69
2021/06/08 04:41:20;;;;;;;82.37;14.00;;;;;;;27.87;50.35;100075.47;1796397;78;21519;-67
2021/06/08 04:43:47;;;;;;;64.87;13.55;;;;;;;28.08;49.94;100075.34;1791443;78;21008;-68
2021/06/08 04:46:15;;;;;;;76.85;12.63;;;;;;;28.37;49.87;100077.82;1755652;79;21064;-68
2021/06/08 04:48:43;;;;;;;72.47;11.12;;;;;;;28.65;49.28;100070.93;1774111;80;20994;-68
2021/06/08 04:51:11;;;;;;;99.25;14.58;;;;;;;28.92;48.84;100074.03;1765012;78;20985;-68
2021/06/08 04:53:39;;;;;;;119.40;14.90;;;;;;;29.19;48.70;100076.65;1750246;80;20965;-68
2021/06/08 04:56:09;;;;;;;108.85;14.40;;;;;;;29.68;47.99;100077.94;1750131;80;21531;-68
2021/06/08 04:58:37;;;;;;;88.52;13.10;;;;;;;29.95;47.63;100078.58;1792759;78;21076;-68
2021/06/08 05:01:27;;;;;;;75.65;10.48;;;;;;;30.31;47.14;100075.05;1787924;78;20957;-68
2021/06/08 05:03:59;;;;;;;26.65;7.87;;;;;;;30.70;46.81;100072.40;1787005;78;20994;-69
2021/06/08 05:06:31;;;;;;;30.88;7.40;;;;;;;31.54;46.49;100078.28;1779654;78;21597;-69
2021/06/08 05:09:10;;;;;;;22.62;6.55;;;;;;;31.87;45.07;100080.59;1781637;78;21055;-68
2021/06/08 05:11:52;;;;;;;326.07;26.82;;;;;;;31.63;44.24;100068.97;1779617;78;21094;-69
2021/06/08 05:14:20;;;;;;;36.58;5.92;;;;;;;31.41;43.82;100073.12;1775669;78;21368;-68
2021/06/08 05:16:49;;;;;;;12.15;2.95;;;;;;;31.25;43.03;100084.20;1774192;78;21458;-68
2021/06/08 05:19:18;;;;;;;11.05;3.00;;;;;;;31.07;42.83;100087.94;1749497;80;21034;-68
2021/06/08 05:21:46;;;;;;;10.05;3.10;;;;;;;31.26;42.72;100083.19;1780812;79;21139;-68
2021/06/08 05:24:15;;;;;;;5.12;2.85;;;;;;;31.37;41.83;100093.45;1774414;79;21853;-68
2021/06/08 05:26:47;;;;;;;5.65;2.77;;;;;;;31.26;42.03;100088.58;1785570;78;22380;-68
2021/06/08 05:29:18;;;;;;;10.40;2.20;;;;;;;30.85;39.83;100093.89;1788455;78;21264;-67
2021/06/08 05:31:45;;;;;;;6.58;2.10;;;;;;;30.00;39.68;100097.69;1783130;78;20966;-68
2021/06/08 05:34:14;;;;;;;5.40;2.17;;;;;;;29.65;38.37;100098.81;1779859;78;21097;-68
2021/06/08 05:36:43;;;;;;;5.62;1.95;;;;;;;28.94;39.59;100077.37;1782022;79;21122;-66
2021/06/08 05:39:10;;;;;;;6.80;2.15;;;;;;;28.94;39.59;100077.37;1787951;78;21605;-67
2021/06/08 05:41:37;;;;;;;12.88;2.47;;;;;;;29.45;37.57;100095.00;1773770;79;21054;-68
2021/06/08 05:44:05;;;;;;;4.17;1.82;;;;;;;29.45;37.57;100095.00;1786991;78;21072;-67
2021/06/08 05:46:37;;;;;;;3.00;1.80;;;;;;;29.30;37.97;100100.91;1784190;78;20955;-67
2021/06/08 05:49:06;;;;;;;6.45;2.00;;;;;;;28.90;36.92;100090.84;1757962;78;21107;-68
2021/06/08 05:51:36;;;;;;;6.12;2.12;;;;;;;28.33;36.30;100099.66;1777634;78;21093;-67
2021/06/08 05:54:06;;;;;;;5.83;1.70;;;;;;;27.66;36.34;100103.36;1791526;78;20931;-67
2021/06/08 05:56:36;;;;;;;4.50;1.75;;;;;;;27.45;36.28;100101.28;1791181;78;20952;-68
2021/06/08 05:59:03;;;;;;;4.35;1.22;;;;;;;27.49;36.11;100101.76;1769837;79;21096;-67
2021/06/08 06:01:30;;;;;;;4.33;1.22;;;;;;;26.95;35.30;100103.70;1795826;78;21914;-67
2021/06/08 06:03:58;;;;;;;23.57;2.95;;;;;;;27.04;36.85;100108.54;1801097;78;21002;-67
2021/06/08 06:06:25;;;;;;;4.00;1.50;;;;;;;27.19;36.25;100106.86;1770443;79;21592;-67
2021/06/08 06:08:52;;;;;;;3.17;1.55;;;;;;;27.28;36.61;100112.55;1791921;78;21078;-68
2021/06/08 06:11:19;;;;;;;6.87;1.70;;;;;;;26.74;33.71;100109.55;1794545;78;21086;-69
2021/06/08 06:13:49;;;;;;;6.47;1.67;;;;;;;26.02;35.37;100108.78;1791058;78;21141;-68
2021/06/08 06:16:19;;;;;;;6.55;1.70;;;;;;;25.92;35.40;100108.07;1786906;78;21067;-68
2021/06/08 06:18:46;;;;;;;8.13;1.27;;;;;;;25.92;35.87;100108.07;1794663;78;20955;-68
2021/06/08 06:21:16;;;;;;;8.75;1.60;;;;;;;26.01;34.97;100107.08;1760367;79;21074;-70
2021/06/08 06:23:43;;;;;;;4.95;1.55;;;;;;;25.87;35.31;100103.20;1766311;79;21161;-67
2021/06/08 06:26:10;;;;;;;2.65;1.50;;;;;;;25.98;35.26;100110.09;1763023;78;21069;-67
2021/06/08 06:28:40;;;;;;;3.98;1.70;;;;;;;26.10;34.88;100112.81;1795901;78;21008;-69
2021/06/08 06:31:09;;;;;;;2.62;1.50;;;;;;;25.82;35.12;100104.64;1794943;78;20974;-69
2021/06/08 06:33:36;;;;;;;4.17;1.60;;;;;;;25.93;35.44;100107.06;1784349;79;21112;-69
2021/06/08 06:36:04;;;;;;;7.15;1.67;;;;;;;25.76;34.80;100106.64;1768103;79;21022;-68
2021/06/08 06:38:31;;;;;;;6.47;1.47;;;;;;;25.44;34.69;100109.51;1770485;79;21937;-69
2021/06/08 06:41:05;;;;;;;10.88;1.90;;;;;;;25.48;34.25;100106.84;1769828;79;22227;-68
2021/06/08 06:43:33;;;;;;;11.00;1.72;;;;;;;25.45;35.21;100108.50;1769153;79;21556;-69
2021/06/08 06:46:00;;;;;;;22.42;3.08;;;;;;;26.04;35.55;100114.78;1761807;79;21812;-70
2021/06/08 06:48:27;;;;;;;7.03;1.72;;;;;;;26.38;35.87;100107.16;1763413;79;21032;-70
2021/06/08 06:50:55;;;;;;;9.73;1.80;;;;;;;26.60;34.37;100099.52;1777779;78;21571;-70
2021/06/08 06:53:22;;;;;;;11.30;2.65;;;;;;;26.02;34.27;100110.12;1772856;78;20886;-71
2021/06/08 06:55:52;;;;;;;6.03;1.67;;;;;;;25.89;34.37;100108.39;1756327;79;22275;-70
2021/06/08 06:58:21;;;;;;;9.40;2.58;;;;;;;25.58;33.75;100108.91;1782615;79;22967;-70
2021/06/08 07:00:49;;;;;;;9.93;3.20;;;;;;;24.98;34.62;100112.84;1762259;79;21059;-70
2021/06/08 07:03:18;;;;;;;8.90;2.77;;;;;;;24.48;34.79;100104.13;1763387;80;21108;-70
2021/06/08 07:05:48;;;;;;;14.15;3.47;;;;;;;24.60;34.94;100106.89;1748683;80;21085;-69
2021/06/08 07:08:19;;;;;;;9.28;2.33;;;;;;;24.54;35.43;100104.84;1761183;80;21018;-69
2021/06/08 07:10:45;;;;;;;13.45;2.70;;;;;;;24.99;35.96;100107.87;1781993;78;21001;-69
2021/06/08 07:13:12;;;;;;;39.03;5.65;;;;;;;25.41;35.84;100107.16;1764535;80;21014;-69
2021/06/08 07:15:40;;;;;;;8.15;3.00;;;;;;;25.92;36.44;100102.72;1790648;78;21094;-68
2021/06/08 07:18:10;;;;;;;8.30;2.30;;;;;;;26.25;35.49;100100.12;1791534;78;22026;-68
2021/06/08 07:20:37;;;;;;;15.90;2.47;;;;;;;26.10;34.40;100103.45;1784090;78;21005;-68
2021/06/08 07:23:05;;;;;;;15.72;2.40;;;;;;;25.35;34.78;100099.78;1799935;78;21495;-69
2021/06/08 07:25:36;;;;;;;11.08;2.12;;;;;;;24.82;34.72;100106.08;1755358;79;21600;-71
2021/06/08 07:28:04;;;;;;;16.80;2.47;;;;;;;24.60;35.87;100110.89;1772024;79;21510;-71
2021/06/08 07:30:31;;;;;;;12.18;2.10;;;;;;;24.75;36.12;100109.34;1768763;79;21101;-67
2021/06/08 07:33:33;;;;;;;10.60;2.77;;;;;;;25.00;36.63;100115.70;1767948;79;20993;-67
2021/06/08 07:36:18;;;;;;;11.53;3.17;;;;;;;24.69;35.86;100104.63;1762729;79;21094;-67
2021/06/08 07:38:56;;;;;;;14.03;2.67;;;;;;;24.19;36.57;100111.80;1774538;79;21088;-67
2021/06/08 07:41:27;;;;;;;7.28;2.50;;;;;;;24.08;36.73;100110.67;1766256;79;21422;-66
2021/06/08 07:44:00;;;;;;;44.73;5.50;;;;;;;24.14;36.63;100112.73;1773478;79;21048;-71
2021/06/08 07:46:26;;;;;;;7.33;2.65;;;;;;;23.98;37.28;100112.58;1766176;79;21092;-70
2021/06/08 07:48:57;;;;;;;6.55;2.35;;;;;;;23.94;36.88;100121.85;1765447;79;21090;-71
2021/06/08 07:51:28;;;;;;;15.18;2.87;;;;;;;23.48;37.15;100120.92;1759899;79;21058;-72
2021/06/08 07:53:56;;;;;;;14.65;2.95;;;;;;;23.13;37.69;100122.41;1773782;79;21194;-72
2021/06/08 07:56:23;;;;;;;17.70;2.80;;;;;;;23.22;37.93;100122.90;1767596;79;21619;-72
2021/06/08 07:58:50;;;;;;;7.67;3.45;;;;;;;23.25;38.31;100126.60;1799932;78;20986;-72
2021/06/08 08:01:20;;;;;;;7.95;2.77;;;;;;;23.44;38.53;100134.54;1754358;80;21169;-75
2021/06/08 08:03:48;;;;;;;100.53;12.35;;;;;;;23.55;38.41;100132.66;1756254;80;21025;-74
2021/06/08 08:06:17;;;;;;;11.55;3.10;;;;;;;23.74;38.55;100131.28;1744337;79;21183;-72
2021/06/08 08:08:44;;;;;;;12.23;3.00;;;;;;;23.93;38.79;100130.85;1753128;80;21026;-69
2021/06/08 08:11:14;;;;;;;;;;;;;;;23.84;38.56;100122.75;1774057;79;21093;-73
2021/06/08 08:13:44;;;;;;;6.03;2.47;;;;;;;23.95;38.56;100132.88;1767904;80;20173;-72
2021/06/08 08:16:14;;;;;;;4.53;2.33;;;;;;;23.76;38.40;100133.31;1786803;78;21617;-73
2021/06/08 08:18:46;;;;;;;10.28;2.77;;;;;;;23.57;38.33;100133.36;1790443;78;21093;-73
2021/06/08 08:21:17;;;;;;;11.33;4.33;;;;;;;23.19;38.68;100136.01;1786184;78;21997;-72
2021/06/08 08:23:45;;;;;;;11.10;3.22;;;;;;;23.13;38.99;100131.23;1751826;80;20937;-72
2021/06/08 08:26:12;;;;;;;10.80;3.50;;;;;;;23.24;39.40;100128.89;1753044;79;21042;-73
2021/06/08 08:28:42;;;;;;;8.53;2.92;;;;;;;23.70;39.89;100133.88;1765499;80;21575;-70
2021/06/08 08:31:14;;;;;;;9.80;3.17;;;;;;;24.02;39.56;100131.28;1762338;79;21183;-73
2021/06/08 08:33:42;;;;;;;7.20;2.70;;;;;;;24.29;39.60;100133.92;1791997;78;20953;-71
2021/06/08 08:36:09;;;;;;;4.20;1.98;;;;;;;24.29;39.39;100132.59;1763773;79;21033;-71
2021/06/08 08:38:36;;;;;;;12.50;3.20;;;;;;;24.17;39.52;100133.80;1763641;79;21586;-70
2021/06/08 08:41:04;;;;;;;9.33;3.30;;;;;;;24.16;39.18;100130.77;1767686;79;21146;-73
2021/06/08 08:43:32;;;;;;;11.53;3.20;;;;;;;23.74;39.53;100131.28;1773298;79;21087;-71
2021/06/08 08:45:59;;;;;;;17.73;3.90;;;;;;;23.96;39.62;100131.88;1772233;79;20971;-75
2021/06/08 08:48:25;;;;;;;;;;;;;;;23.42;39.26;100131.17;1769771;79;21098;-72
2021/06/08 08:50:54;;;;;;;6.58;3.15;;;;;;;23.50;40.17;100124.25;1771668;79;20212;-74
2021/06/08 08:53:22;;;;;;;6.42;2.75;;;;;;;23.69;39.63;100132.17;1754782;79;20986;-74
2021/06/08 08:55:49;;;;;;;2.95;2.20;;;;;;;23.58;39.52;100129.70;1752537;79;21105;-74
2021/06/08 08:58:17;;;;;;;5.75;2.50;;;;;;;23.53;39.77;100127.99;1758987;79;21110;-73
2021/06/08 09:00:45;;;;;;;8.85;2.70;;;;;;;23.67;40.07;100123.51;1788429;78;20966;-72
2021/06/08 09:03:15;;;;;;;30.82;4.87;;;;;;;23.92;39.90;100126.48;1788599;78;20984;-71
2021/06/08 09:05:43;;;;;;;4.00;2.47;;;;;;;24.13;40.39;100127.08;1788219;78;21603;-70
2021/06/08 09:08:10;;;;;;;6.03;2.45;;;;;;;24.43;40.50;100122.39;1759577;79;21144;-66
2021/06/08 09:10:39;;;;;;;15.45;3.15;;;;;;;24.75;40.34;100122.69;1771473;79;21099;-74
2021/06/08 09:13:06;;;;;;;10.45;2.80;;;;;;;24.65;40.00;100127.30;1769918;79;20966;-69
2021/06/08 09:15:35;;;;;;;7.25;2.40;;;;;;;24.51;40.02;100118.50;1767570;79;21079;-69
2021/06/08 09:18:03;;;;;;;3.60;2.30;;;;;;;24.45;39.90;100115.08;1776583;78;21041;-70
2021/06/08 09:20:32;;;;;;;2.62;2.20;;;;;;;24.40;39.73;100117.36;1796365;78;21104;-70
2021/06/08 09:23:05;;;;;;;11.08;2.60;;;;;;;24.42;39.61;100115.35;1784308;78;21593;-70
2021/06/08 09:25:45;;;;;;;3.55;1.70;;;;;;;24.32;40.18;100112.27;1722424;79;21067;-68
2021/06/08 09:28:31;;;;;;;6.35;2.55;;;;;;;24.46;39.31;100116.77;1802337;78;20932;-67
2021/06/08 09:31:23;;;;;;;14.58;3.05;;;;;;;24.20;39.62;100105.95;1752633;80;21092;-68
2021/06/08 09:33:53;;;;;;;4.50;2.22;;;;;;;24.27;40.00;100102.55;1784033;79;21109;-67
2021/06/08 09:36:23;;;;;;;4.92;2.30;;;;;;;24.35;38.77;100111.97;1769677;79;21669;-72
2021/06/08 09:38:58;;;;;;;2.92;2.02;;;;;;;24.20;39.49;100108.16;1766038;79;21056;-70
2021/06/08 09:41:33;;;;;;;3.12;2.22;;;;;;;24.17;39.25;100110.27;1753555;79;21366;-68
2021/06/08 09:44:10;;;;;;;11.08;2.77;;;;;;;24.06;39.31;100116.67;1788848;78;20990;-70
2021/06/08 09:46:56;;;;;;;4.17;2.20;;;;;;;23.72;38.69;100113.25;1768608;79;21146;-68
2021/06/08 09:49:37;;;;;;;4.05;2.35;;;;;;;23.69;39.36;100118.84;1766670;79;21091;-72
2021/06/08 09:52:10;;;;;;;7.95;2.00;;;;;;;24.03;39.78;100114.28;1762069;79;21165;-69
2021/06/08 09:54:54;;;;;;;6.03;2.25;;;;;;;24.34;38.88;100111.63;1759127;80;21150;-69
2021/06/08 09:57:32;;;;;;;9.28;2.77;;;;;;;24.48;38.68;100112.13;1797799;78;21007;-70
2021/06/08 10:00:09;;;;;;;5.75;2.95;;;;;;;24.56;38.64;100112.17;1766068;78;21114;-68
2021/06/08 10:02:43;;;;;;;4.20;2.83;;;;;;;24.59;38.38;100105.70;1794229;78;20952;-70
2021/06/08 10:05:30;;;;;;;5.28;2.83;;;;;;;24.73;39.02;100104.67;1800484;77;20950;-69
2021/06/08 10:08:07;;;;;;;8.70;3.05;;;;;;;24.79;38.78;100104.05;1771236;79;21068;-71
2021/06/08 10:10:45;;;;;;;7.90;2.20;;;;;;;24.67;38.86;100117.28;1764503;79;21040;-72
2021/06/08 10:13:15;;;;;;;4.58;2.30;;;;;;;24.55;38.89;100101.17;1768064;79;21655;-70
2021/06/08 10:16:03;;;;;;;5.40;2.00;;;;;;;24.71;39.27;100099.98;1766151;79;21131;-70
2021/06/08 10:18:48;;;;;;;;;;;;;;;24.92;38.85;100102.80;1767595;79;21072;-69
2021/06/08 10:21:15;;;;;;;;;;;;;;;24.83;38.60;100097.06;1756964;79;21340;-68
2021/06/08 10:23:41;;;;;;;5.20;2.42;;;;;;;24.22;38.69;100102.16;1763945;79;20127;-68
2021/06/08 10:26:12;;;;;;;8.20;2.60;;;;;;;24.07;39.01;100098.34;1762085;79;21107;-69
2021/06/08 10:28:39;;;;;;;4.67;2.52;;;;;;;24.16;39.43;100086.75;1759689;79;21515;-70
2021/06/08 10:31:08;;;;;;;7.08;2.60;;;;;;;24.46;39.30;100088.75;1766010;79;21050;-68
2021/06/08 10:33:35;;;;;;;6.65;2.30;;;;;;;24.18;38.87;100098.13;1798366;78;20961;-66
2021/06/08 10:36:01;;;;;;;;;;;;;;;24.02;39.38;100092.61;1801389;77;21183;-68
2021/06/08 10:38:28;;;;;;;6.05;2.98;;;;;;;23.97;39.12;100089.55;1805296;78;21940;-71
2021/06/08 10:40:57;;;;;;;9.15;2.40;;;;;;;24.08;39.63;100093.33;1782227;77;20965;-72
2021/06/08 10:43:32;;;;;;;7.30;2.65;;;;;;;24.57;40.28;100087.18;1777075;78;21536;-68
2021/06/08 10:45:59;;;;;;;14.87;3.15;;;;;;;24.69;39.09;100090.44;1772162;79;21048;-69
2021/06/08 10:48:39;;;;;;;4.33;2.12;;;;;;;24.40;38.82;100104.02;1772576;79;21018;-69
2021/06/08 10:51:12;;;;;;;4.40;2.52;;;;;;;24.02;39.02;100096.61;1781577;79;21789;-70
2021/06/08 10:53:48;;;;;;;4.22;2.22;;;;;;;24.14;39.29;100099.40;1765750;79;21623;-71
2021/06/08 10:56:36;;;;;;;5.47;2.40;;;;;;;24.35;39.32;100101.29;1760413;79;20962;-70
2021/06/08 10:59:09;;;;;;;3.25;2.25;;;;;;;24.32;38.51;100092.26;1760780;79;20998;-71
2021/06/08 11:01:43;;;;;;;10.65;2.80;;;;;;;24.16;39.03;100090.75;1771089;79;21012;-70
2021/06/08 11:04:28;;;;;;;6.22;2.20;;;;;;;24.53;39.80;100091.13;1787082;79;21282;-70
2021/06/08 11:07:03;;;;;;;4.78;2.20;;;;;;;24.87;38.47;100095.27;1768743;79;20946;-70
2021/06/08 11:09:33;;;;;;;4.47;2.27;;;;;;;24.52;37.34;100086.80;1795876;78;21006;-70
2021/06/08 11:12:11;;;;;;;29.40;4.60;;;;;;;24.26;37.99;100090.20;1796616;78;20999;-70
2021/06/08 11:14:45;;;;;;;11.65;2.70;;;;;;;24.47;39.08;100087.75;1787570;78;20983;-70
2021/06/08 11:17:28;;;;;;;6.65;2.20;;;;;;;24.95;38.99;100084.61;1765458;79;21103;-71
2021/06/08 11:20:06;;;;;;;6.78;2.55;;;;;;;24.59;37.37;100070.52;1801379;78;21131;-70
2021/06/08 11:22:41;;;;;;;8.05;2.50;;;;;;;24.31;38.38;100079.92;1764790;79;21047;-70
2021/06/08 11:25:34;;;;;;;17.40;2.50;;;;;;;24.39;38.24;100086.30;1773160;79;21004;-70
2021/06/08 11:28:15;;;;;;;6.40;2.17;;;;;;;24.31;38.39;100077.25;1764006;79;21060;-70
2021/06/08 11:30:59;;;;;;;5.00;2.30;;;;;;;24.15;38.04;100076.25;1753218;80;21074;-70
2021/06/08 11:33:36;;;;;;;116.22;18.30;;;;;;;24.05;38.18;100076.30;1791545;78;21053;-69
2021/06/08 11:36:24;;;;;;;14.00;3.37;;;;;;;24.25;39.03;100069.00;1764640;78;21005;-70
2021/06/08 11:38:57;;;;;;;8.45;2.10;;;;;;;24.59;38.53;100069.66;1787074;78;21672;-70
2021/06/08 11:41:24;;;;;;;10.78;3.27;;;;;;;24.54;38.33;100066.14;1798789;78;21001;-71